createdAt,value
2023-01-19T00:00:29.393Z,96494.44
2023-01-19T00:01:32.077Z,96488.41
2023-01-19T00:02:34.822Z,96494.72
2023-01-19T00:03:37.559Z,96486.75
2023-01-19T00:04:40.181Z,96493.09
2023-01-19T00:05:44.138Z,96489.94
2023-01-19T00:06:46.769Z,96495.22
2023-01-19T00:07:50.513Z,96490.31
2023-01-19T00:08:53.337Z,96496.25
2023-01-19T00:09:56.059Z,96501.03
2023-01-19T00:10:58.757Z,96489.91
2023-01-19T00:12:01.604Z,96493.84
2023-01-19T00:13:04.173Z,96503.16
2023-01-19T00:14:06.896Z,96491.38
2023-01-19T00:15:09.826Z,96499.50
2023-01-19T00:16:12.447Z,96488.00
2023-01-19T00:17:15.419Z,96497.69
2023-01-19T00:18:18.458Z,96502.19
2023-01-19T00:19:21.303Z,96501.69
2023-01-19T00:20:23.937Z,96500.84
2023-01-19T00:21:26.696Z,96497.69
2023-01-19T00:22:29.345Z,96490.19
2023-01-19T00:23:32.070Z,96496.13
2023-01-19T00:24:34.937Z,96497.47
2023-01-19T00:25:42.855Z,96493.34
2023-01-19T00:26:46.191Z,96491.72
2023-01-19T00:27:49.573Z,96499.81
2023-01-19T00:28:53.258Z,96500.66
2023-01-19T00:29:55.974Z,96490.69
2023-01-19T00:30:58.574Z,96492.97
2023-01-19T00:32:01.597Z,96490.56
2023-01-19T00:33:04.377Z,96492.22
2023-01-19T00:34:07.938Z,96494.87
2023-01-19T00:35:10.461Z,96491.16
2023-01-19T00:36:13.012Z,96493.25
2023-01-19T00:37:17.024Z,96486.81
2023-01-19T00:38:20.059Z,96493.63
2023-01-19T00:39:22.738Z,96490.16
2023-01-19T00:40:25.266Z,96499.19
2023-01-19T00:41:46.494Z,96494.87
2023-01-19T00:42:49.349Z,96498.16
2023-01-19T00:43:51.982Z,96496.47
2023-01-19T00:44:54.498Z,96497.25
2023-01-19T00:45:57.069Z,96492.28
2023-01-19T00:46:59.657Z,96492.38
2023-01-19T00:48:02.550Z,96495.44
2023-01-19T00:49:05.424Z,96494.13
2023-01-19T00:50:09.058Z,96493.81
2023-01-19T00:51:11.713Z,96491.03
2023-01-19T00:52:14.317Z,96485.75
2023-01-19T00:53:17.336Z,96491.59
2023-01-19T00:54:21.737Z,96484.12
2023-01-19T00:55:24.441Z,96484.00
2023-01-19T00:56:27.431Z,96486.13
2023-01-19T00:57:30.076Z,96480.53
2023-01-19T00:58:32.747Z,96479.63
2023-01-19T00:59:35.454Z,96473.75
2023-01-19T01:00:38.435Z,96481.25
2023-01-19T01:01:45.638Z,96478.75
2023-01-19T01:02:50.350Z,96477.28
2023-01-19T01:03:56.268Z,96481.50
2023-01-19T01:05:03.257Z,96478.44
2023-01-19T01:06:08.841Z,96476.59
2023-01-19T01:07:11.764Z,96472.87
2023-01-19T01:08:14.656Z,96473.81
2023-01-19T01:09:17.351Z,96456.69
2023-01-19T01:10:22.218Z,96471.94
2023-01-19T01:11:24.836Z,96470.75
2023-01-19T01:12:27.978Z,96472.44
2023-01-19T01:13:31.064Z,96468.53
2023-01-19T01:14:34.223Z,96470.75
2023-01-19T01:15:36.787Z,96474.88
2023-01-19T01:16:39.927Z,96466.25
2023-01-19T01:17:47.567Z,96465.44
2023-01-19T01:18:50.245Z,96478.88
2023-01-19T01:19:52.830Z,96473.34
2023-01-19T01:21:03.211Z,96470.38
2023-01-19T01:22:06.025Z,96484.66
2023-01-19T01:23:08.636Z,96483.59
2023-01-19T01:24:11.392Z,96491.06
2023-01-19T01:25:14.884Z,96492.69
2023-01-19T01:26:17.630Z,96483.59
2023-01-19T01:27:20.331Z,96492.81
2023-01-19T01:28:23.161Z,96485.31
2023-01-19T01:29:26.192Z,96481.97
2023-01-19T01:30:28.845Z,96482.34
2023-01-19T01:31:31.934Z,96482.41
2023-01-19T01:32:34.601Z,96476.94
2023-01-19T01:33:40.848Z,96481.13
2023-01-19T01:34:44.811Z,96481.06
2023-01-19T01:35:48.720Z,96481.91
2023-01-19T01:36:51.566Z,96490.84
2023-01-19T01:37:57.880Z,96493.13
2023-01-19T01:39:00.605Z,96487.41
2023-01-19T01:40:03.922Z,96486.84
2023-01-19T01:41:06.835Z,96489.59
2023-01-19T01:42:20.487Z,96494.47
2023-01-19T01:43:23.330Z,96489.59
2023-01-19T01:44:50.096Z,96498.47
2023-01-19T01:45:54.254Z,96501.81
2023-01-19T01:46:57.195Z,96510.69
2023-01-19T01:48:02.721Z,96506.94
2023-01-19T01:49:08.232Z,96499.94
2023-01-19T01:50:18.076Z,96510.91
2023-01-19T01:51:34.193Z,96514.00
2023-01-19T01:52:41.091Z,96509.22
2023-01-19T01:53:45.148Z,96515.00
2023-01-19T01:54:47.847Z,96511.09
2023-01-19T01:55:50.647Z,96518.87
2023-01-19T01:56:55.733Z,96522.72
2023-01-19T01:58:02.138Z,96524.72
2023-01-19T01:59:06.983Z,96523.06
2023-01-19T02:00:10.991Z,96533.53
2023-01-19T02:01:32.278Z,96537.59
2023-01-19T02:02:51.431Z,96532.78
2023-01-19T02:03:54.784Z,96538.16
2023-01-19T02:05:01.115Z,96540.66
2023-01-19T02:06:05.642Z,96543.88
2023-01-19T02:07:27.074Z,96539.88
2023-01-19T02:09:00.958Z,96543.78
2023-01-19T02:10:22.283Z,96547.44
2023-01-19T02:11:44.530Z,96551.50
2023-01-19T02:13:06.134Z,96547.38
2023-01-19T02:14:08.896Z,96545.97
2023-01-19T02:15:16.302Z,96543.22
2023-01-19T02:16:19.147Z,96535.91
2023-01-19T02:17:22.265Z,96520.31
2023-01-19T02:18:27.310Z,96505.94
2023-01-19T02:19:39.348Z,96493.63
2023-01-19T02:20:45.350Z,96489.91
2023-01-19T02:22:02.105Z,96483.09
2023-01-19T02:23:08.019Z,96482.59
2023-01-19T02:24:11.185Z,96487.56
2023-01-19T02:25:14.147Z,96487.66
2023-01-19T02:26:19.257Z,96493.91
2023-01-19T02:27:21.901Z,96493.88
2023-01-19T02:28:26.294Z,96500.16
2023-01-19T02:29:29.226Z,96509.09
2023-01-19T02:30:33.214Z,96516.38
2023-01-19T02:31:37.537Z,96525.66
2023-01-19T02:32:40.059Z,96537.50
2023-01-19T02:33:42.812Z,96537.03
2023-01-19T02:34:45.341Z,96535.16
2023-01-19T02:35:49.703Z,96538.28
2023-01-19T02:36:54.390Z,96532.84
2023-01-19T02:37:57.872Z,96523.56
2023-01-19T02:39:02.225Z,96521.69
2023-01-19T02:40:06.162Z,96513.62
2023-01-19T02:41:09.570Z,96509.31
2023-01-19T02:42:32.455Z,96499.38
2023-01-19T02:43:35.159Z,96504.34
2023-01-19T02:44:38.633Z,96504.41
2023-01-19T02:45:42.925Z,96501.31
2023-01-19T02:46:46.150Z,96495.75
2023-01-19T02:47:50.131Z,96495.19
2023-01-19T02:48:52.834Z,96485.97
2023-01-19T02:49:58.379Z,96482.34
2023-01-19T02:51:04.981Z,96483.09
2023-01-19T02:52:11.644Z,96482.47
2023-01-19T02:53:24.933Z,96476.59
2023-01-19T02:54:27.536Z,96478.50
2023-01-19T02:55:31.932Z,96488.56
2023-01-19T02:56:37.437Z,96488.81
2023-01-19T02:57:59.637Z,96499.72
2023-01-19T02:59:28.665Z,96502.84
2023-01-19T03:00:42.934Z,96503.16
2023-01-19T03:01:52.187Z,96503.97
2023-01-19T03:03:02.394Z,96497.28
2023-01-19T03:04:14.877Z,96505.66
2023-01-19T03:05:17.671Z,96501.97
2023-01-19T03:06:37.937Z,96502.53
2023-01-19T03:07:50.959Z,96508.72
2023-01-19T03:08:57.876Z,96501.13
2023-01-19T03:10:07.317Z,96492.91
2023-01-19T03:11:11.636Z,96496.97
2023-01-19T03:12:33.141Z,96495.19
2023-01-19T03:13:39.432Z,96503.50
2023-01-19T03:14:46.216Z,96504.72
2023-01-19T03:15:50.654Z,96508.03
2023-01-19T03:16:59.465Z,96523.59
2023-01-19T03:18:03.211Z,96522.25
2023-01-19T03:19:29.981Z,96528.47
2023-01-19T03:20:32.695Z,96529.53
2023-01-19T03:21:37.034Z,96534.75
2023-01-19T03:22:39.701Z,96539.53
2023-01-19T03:23:45.061Z,96540.94
2023-01-19T03:24:48.403Z,96541.16
2023-01-19T03:25:51.497Z,96537.09
2023-01-19T03:27:00.454Z,96530.16
2023-01-19T03:28:04.417Z,96523.41
2023-01-19T03:29:09.109Z,96515.00
2023-01-19T03:30:14.204Z,96507.75
2023-01-19T03:31:23.059Z,96496.25
2023-01-19T03:32:30.288Z,96476.25
2023-01-19T03:33:34.523Z,96467.81
2023-01-19T03:34:38.667Z,96468.72
2023-01-19T03:35:43.917Z,96465.81
2023-01-19T03:36:51.005Z,96460.00
2023-01-19T03:37:56.115Z,96458.16
2023-01-19T03:39:00.627Z,96460.53
2023-01-19T03:40:03.718Z,96460.06
2023-01-19T03:41:09.370Z,96462.16
2023-01-19T03:42:14.246Z,96451.28
2023-01-19T03:43:18.607Z,96451.97
2023-01-19T03:44:21.633Z,96448.19
2023-01-19T03:45:24.340Z,96445.81
2023-01-19T03:46:27.568Z,96446.38
2023-01-19T03:47:30.539Z,96447.63
2023-01-19T03:48:33.878Z,96451.19
2023-01-19T03:49:37.088Z,96451.41
2023-01-19T03:50:39.809Z,96459.03
2023-01-19T03:51:42.484Z,96459.59
2023-01-19T03:52:45.144Z,96459.44
2023-01-19T03:53:47.803Z,96467.94
2023-01-19T03:54:50.577Z,96467.44
2023-01-19T03:55:54.523Z,96458.72
2023-01-19T03:56:57.084Z,96458.03
2023-01-19T03:57:59.824Z,96460.66
2023-01-19T03:59:02.634Z,96453.47
2023-01-19T04:00:05.571Z,96456.84
2023-01-19T04:01:08.944Z,96458.38
2023-01-19T04:02:11.649Z,96475.47
2023-01-19T04:03:15.258Z,96480.78
2023-01-19T04:04:17.963Z,96486.59
2023-01-19T04:05:20.625Z,96497.63
2023-01-19T04:06:23.198Z,96507.50
2023-01-19T04:07:26.087Z,96515.03
2023-01-19T04:08:29.059Z,96510.28
2023-01-19T04:09:31.760Z,96513.38
2023-01-19T04:10:34.617Z,96511.34
2023-01-19T04:11:37.638Z,96504.91
2023-01-19T04:12:40.367Z,96508.34
2023-01-19T04:13:43.173Z,96503.81
2023-01-19T04:14:45.820Z,96514.28
2023-01-19T04:15:48.751Z,96527.25
2023-01-19T04:16:52.430Z,96526.03
2023-01-19T04:17:57.506Z,96528.66
2023-01-19T04:19:00.167Z,96526.34
2023-01-19T04:20:02.949Z,96527.81
2023-01-19T04:21:07.162Z,96523.50
2023-01-19T04:22:10.666Z,96527.34
2023-01-19T04:23:13.242Z,96527.34
2023-01-19T04:24:16.059Z,96521.69
2023-01-19T04:25:18.968Z,96521.84
2023-01-19T04:26:21.668Z,96514.28
2023-01-19T04:27:25.915Z,96511.56
2023-01-19T04:28:28.766Z,96497.28
2023-01-19T04:29:31.472Z,96500.97
2023-01-19T04:30:34.153Z,96494.53
2023-01-19T04:31:37.217Z,96489.31
2023-01-19T04:32:40.135Z,96493.63
2023-01-19T04:33:42.817Z,96493.00
2023-01-19T04:34:45.410Z,96493.28
2023-01-19T04:35:51.884Z,96489.38
2023-01-19T04:36:56.207Z,96492.44
2023-01-19T04:37:59.072Z,96486.38
2023-01-19T04:39:01.722Z,96501.38
2023-01-19T04:40:04.570Z,96487.03
2023-01-19T04:41:07.324Z,96485.22
2023-01-19T04:42:10.098Z,96485.31
2023-01-19T04:43:12.937Z,96474.78
2023-01-19T04:44:15.580Z,96467.50
2023-01-19T04:45:18.231Z,96466.94
2023-01-19T04:46:20.936Z,96471.56
2023-01-19T04:47:23.739Z,96472.56
2023-01-19T04:48:26.717Z,96472.00
2023-01-19T04:49:29.426Z,96470.03
2023-01-19T04:50:32.901Z,96465.75
2023-01-19T04:51:35.779Z,96465.25
2023-01-19T04:52:38.408Z,96468.69
2023-01-19T04:53:41.122Z,96484.06
2023-01-19T04:54:43.782Z,96502.13
2023-01-19T04:55:46.969Z,96506.91
2023-01-19T04:56:50.876Z,96505.91
2023-01-19T04:57:54.549Z,96501.59
2023-01-19T04:58:57.099Z,96504.38
2023-01-19T04:59:59.741Z,96503.41
2023-01-19T05:01:02.565Z,96502.09
2023-01-19T05:02:05.275Z,96513.66
2023-01-19T05:03:07.994Z,96515.75
2023-01-19T05:04:10.907Z,96520.00
2023-01-19T05:05:13.602Z,96519.75
2023-01-19T05:06:16.572Z,96524.87
2023-01-19T05:07:19.551Z,96531.50
2023-01-19T05:08:22.247Z,96531.63
2023-01-19T05:09:26.136Z,96527.22
2023-01-19T05:10:29.031Z,96527.13
2023-01-19T05:11:31.675Z,96526.09
2023-01-19T05:12:34.455Z,96519.16
2023-01-19T05:13:37.132Z,96505.84
2023-01-19T05:14:39.809Z,96505.53
2023-01-19T05:15:42.871Z,96495.19
2023-01-19T05:16:45.794Z,96504.16
2023-01-19T05:17:48.389Z,96507.72
2023-01-19T05:18:51.145Z,96514.28
2023-01-19T05:19:53.959Z,96518.37
2023-01-19T05:20:57.112Z,96523.84
2023-01-19T05:21:59.700Z,96527.94
2023-01-19T05:23:02.778Z,96525.37
2023-01-19T05:24:05.943Z,96536.50
2023-01-19T05:25:11.400Z,96536.75
2023-01-19T05:26:14.399Z,96545.00
2023-01-19T05:27:17.305Z,96552.53
2023-01-19T05:28:21.620Z,96552.22
2023-01-19T05:29:24.161Z,96560.50
2023-01-19T05:30:26.893Z,96571.09
2023-01-19T05:31:29.575Z,96565.66
2023-01-19T05:32:32.252Z,96570.13
2023-01-19T05:33:35.296Z,96570.66
2023-01-19T05:34:37.906Z,96567.22
2023-01-19T05:35:40.465Z,96565.97
2023-01-19T05:36:43.391Z,96562.94
2023-01-19T05:37:46.205Z,96562.69
2023-01-19T05:38:49.404Z,96556.19
2023-01-19T05:39:52.375Z,96546.47
2023-01-19T05:40:58.820Z,96546.97
2023-01-19T05:42:01.726Z,96550.31
2023-01-19T05:43:05.522Z,96543.63
2023-01-19T05:44:08.400Z,96541.81
2023-01-19T05:45:12.132Z,96546.38
2023-01-19T05:46:14.789Z,96542.75
2023-01-19T05:47:17.424Z,96545.63
2023-01-19T05:48:20.366Z,96552.22
2023-01-19T05:49:23.000Z,96546.00
2023-01-19T05:50:26.089Z,96551.00
2023-01-19T05:51:35.233Z,96550.81
2023-01-19T05:52:37.954Z,96550.31
2023-01-19T05:53:40.851Z,96543.19
2023-01-19T05:54:43.578Z,96549.13
2023-01-19T05:55:46.219Z,96552.12
2023-01-19T05:56:48.875Z,96550.53
2023-01-19T05:57:51.564Z,96540.50
2023-01-19T05:58:54.492Z,96534.00
2023-01-19T05:59:57.141Z,96532.37
2023-01-19T06:01:02.585Z,96515.38
2023-01-19T06:02:05.347Z,96527.22
2023-01-19T06:03:08.037Z,96522.44
2023-01-19T06:04:10.599Z,96522.94
2023-01-19T06:05:13.090Z,96527.00
2023-01-19T06:06:15.697Z,96532.94
2023-01-19T06:07:18.592Z,96529.31
2023-01-19T06:08:21.341Z,96538.09
2023-01-19T06:09:23.912Z,96548.13
2023-01-19T06:10:26.797Z,96546.81
2023-01-19T06:11:29.371Z,96544.75
2023-01-19T06:12:32.732Z,96550.13
2023-01-19T06:13:35.537Z,96538.06
2023-01-19T06:14:38.353Z,96541.91
2023-01-19T06:15:40.983Z,96536.47
2023-01-19T06:16:44.342Z,96519.44
2023-01-19T06:17:47.001Z,96510.44
2023-01-19T06:18:49.700Z,96524.69
2023-01-19T06:19:52.422Z,96519.06
2023-01-19T06:20:58.968Z,96534.94
2023-01-19T06:22:01.712Z,96528.28
2023-01-19T06:23:04.537Z,96526.00
2023-01-19T06:24:07.220Z,96523.34
2023-01-19T06:25:10.387Z,96510.25
2023-01-19T06:26:13.799Z,96502.47
2023-01-19T06:27:16.393Z,96493.75
2023-01-19T06:28:19.138Z,96491.69
2023-01-19T06:29:22.413Z,96492.44
2023-01-19T06:30:25.394Z,96495.28
2023-01-19T06:31:28.098Z,96482.84
2023-01-19T06:32:31.778Z,96480.56
2023-01-19T06:33:34.389Z,96487.25
2023-01-19T06:34:37.307Z,96496.81
2023-01-19T06:35:43.089Z,96491.03
2023-01-19T06:36:46.613Z,96503.31
2023-01-19T06:37:49.505Z,96516.75
2023-01-19T06:38:52.260Z,96537.38
2023-01-19T06:39:55.179Z,96542.78
2023-01-19T06:41:03.464Z,96550.34
2023-01-19T06:42:06.069Z,96548.06
2023-01-19T06:43:08.822Z,96551.19
2023-01-19T06:44:11.423Z,96543.66
2023-01-19T06:45:14.276Z,96543.66
2023-01-19T06:46:17.183Z,96548.31
2023-01-19T06:47:20.050Z,96548.37
2023-01-19T06:48:23.063Z,96549.41
2023-01-19T06:49:25.736Z,96563.91
2023-01-19T06:50:28.459Z,96552.06
2023-01-19T06:51:31.294Z,96548.31
2023-01-19T06:52:33.828Z,96550.34
2023-01-19T06:53:36.530Z,96538.28
2023-01-19T06:54:39.119Z,96539.75
2023-01-19T06:55:41.972Z,96548.84
2023-01-19T06:56:44.698Z,96542.44
2023-01-19T06:57:47.778Z,96540.37
2023-01-19T06:58:52.264Z,96540.91
2023-01-19T06:59:55.193Z,96550.88
2023-01-19T07:01:04.840Z,96538.69
2023-01-19T07:02:27.666Z,96543.31
2023-01-19T07:03:31.715Z,96531.69
2023-01-19T07:04:34.537Z,96532.53
2023-01-19T07:05:37.106Z,96523.13
2023-01-19T07:06:39.971Z,96526.50
2023-01-19T07:07:43.382Z,96512.34
2023-01-19T07:08:45.941Z,96516.69
2023-01-19T07:09:49.023Z,96519.81
2023-01-19T07:11:25.421Z,96524.66
2023-01-19T07:12:22.891Z,96524.87
2023-01-19T07:13:25.413Z,96524.31
2023-01-19T07:14:34.067Z,96528.75
2023-01-19T07:15:37.921Z,96531.59
2023-01-19T07:16:40.874Z,96526.72
2023-01-19T07:17:44.287Z,96528.00
2023-01-19T07:18:48.655Z,96540.66
2023-01-19T07:19:51.284Z,96543.38
2023-01-19T07:20:53.997Z,96547.28
2023-01-19T07:21:56.644Z,96547.13
2023-01-19T07:22:59.630Z,96548.66
2023-01-19T07:24:02.504Z,96552.28
2023-01-19T07:25:05.402Z,96561.72
2023-01-19T07:26:08.159Z,96557.63
2023-01-19T07:27:11.895Z,96554.16
2023-01-19T07:28:16.183Z,96560.84
2023-01-19T07:29:18.860Z,96556.22
2023-01-19T07:30:21.871Z,96560.03
2023-01-19T07:31:25.069Z,96561.69
2023-01-19T07:32:29.132Z,96566.62
2023-01-19T07:33:31.694Z,96571.87
2023-01-19T07:34:34.855Z,96576.63
2023-01-19T07:35:37.633Z,96576.63
2023-01-19T07:36:40.231Z,96574.84
2023-01-19T07:37:42.988Z,96574.09
2023-01-19T07:38:45.678Z,96575.56
2023-01-19T07:39:49.075Z,96574.03
2023-01-19T07:40:52.038Z,96569.22
2023-01-19T07:41:54.628Z,96574.03
2023-01-19T07:42:57.355Z,96568.66
2023-01-19T07:44:00.261Z,96576.88
2023-01-19T07:45:02.761Z,96578.09
2023-01-19T07:46:06.654Z,96577.38
2023-01-19T07:47:12.843Z,96574.81
2023-01-19T07:48:15.447Z,96577.13
2023-01-19T07:49:18.159Z,96571.72
2023-01-19T07:50:24.750Z,96574.53
2023-01-19T07:51:28.168Z,96578.87
2023-01-19T07:52:31.253Z,96574.53
2023-01-19T07:53:34.182Z,96580.69
2023-01-19T07:54:36.786Z,96570.87
2023-01-19T07:55:39.560Z,96576.25
2023-01-19T07:56:42.308Z,96582.34
2023-01-19T07:57:45.155Z,96575.19
2023-01-19T07:58:50.151Z,96585.31
2023-01-19T07:59:53.585Z,96584.34
2023-01-19T08:00:56.653Z,96578.97
2023-01-19T08:01:59.766Z,96583.66
2023-01-19T08:03:03.797Z,96589.81
2023-01-19T08:04:06.735Z,96590.03
2023-01-19T08:05:09.411Z,96588.38
2023-01-19T08:06:22.840Z,96587.91
2023-01-19T08:07:25.397Z,96584.34
2023-01-19T08:08:30.209Z,96596.00
2023-01-19T08:09:32.955Z,96591.84
2023-01-19T08:10:35.836Z,96585.63
2023-01-19T08:11:38.940Z,96590.78
2023-01-19T08:12:42.741Z,96578.13
2023-01-19T08:13:45.301Z,96576.63
2023-01-19T08:14:48.155Z,96580.63
2023-01-19T08:15:52.213Z,96579.19
2023-01-19T08:16:59.490Z,96577.28
2023-01-19T08:18:05.896Z,96571.25
2023-01-19T08:19:08.633Z,96567.19
2023-01-19T08:20:12.366Z,96561.31
2023-01-19T08:21:15.064Z,96566.28
2023-01-19T08:22:17.715Z,96566.59
2023-01-19T08:23:20.564Z,96560.44
2023-01-19T08:24:25.769Z,96557.63
2023-01-19T08:25:42.584Z,96563.34
2023-01-19T08:26:45.716Z,96563.63
2023-01-19T08:27:48.504Z,96565.81
2023-01-19T08:28:51.569Z,96565.47
2023-01-19T08:29:54.938Z,96566.94
2023-01-19T08:30:57.975Z,96558.31
2023-01-19T08:32:03.245Z,96563.44
2023-01-19T08:33:08.496Z,96567.78
2023-01-19T08:34:11.431Z,96566.28
2023-01-19T08:35:14.104Z,96564.75
2023-01-19T08:36:17.043Z,96569.66
2023-01-19T08:37:19.887Z,96569.81
2023-01-19T08:38:23.019Z,96574.44
2023-01-19T08:39:26.022Z,96580.72
2023-01-19T08:40:29.792Z,96576.91
2023-01-19T08:41:32.910Z,96581.13
2023-01-19T08:42:35.503Z,96575.25
2023-01-19T08:43:41.043Z,96585.44
2023-01-19T08:44:57.351Z,96591.53
2023-01-19T08:46:00.568Z,96593.00
2023-01-19T08:47:03.180Z,96595.97
2023-01-19T08:48:06.656Z,96593.97
2023-01-19T08:49:09.531Z,96593.41
2023-01-19T08:50:12.507Z,96584.28
2023-01-19T08:51:15.876Z,96580.91
2023-01-19T08:52:18.552Z,96590.06
2023-01-19T08:53:23.821Z,96592.09
2023-01-19T08:54:26.389Z,96590.09
2023-01-19T08:55:30.075Z,96595.28
2023-01-19T08:56:32.792Z,96592.63
2023-01-19T08:57:35.966Z,96598.47
2023-01-19T08:58:39.540Z,96586.69
2023-01-19T08:59:42.205Z,96575.03
2023-01-19T09:00:44.827Z,96575.81
2023-01-19T09:01:47.772Z,96580.47
2023-01-19T09:02:50.602Z,96580.38
2023-01-19T09:03:53.830Z,96582.44
2023-01-19T09:04:56.539Z,96583.91
2023-01-19T09:05:59.227Z,96580.97
2023-01-19T09:07:01.890Z,96576.78
2023-01-19T09:08:06.481Z,96575.12
2023-01-19T09:09:09.397Z,96576.22
2023-01-19T09:10:12.300Z,96578.25
2023-01-19T09:11:16.011Z,96578.91
2023-01-19T09:12:18.781Z,96583.62
2023-01-19T09:13:21.625Z,96578.44
2023-01-19T09:14:24.751Z,96584.63
2023-01-19T09:15:27.350Z,96584.72
2023-01-19T09:16:30.069Z,96586.03
2023-01-19T09:17:32.714Z,96585.66
2023-01-19T09:18:35.840Z,96591.06
2023-01-19T09:19:38.424Z,96593.63
2023-01-19T09:20:43.539Z,96601.78
2023-01-19T09:21:46.147Z,96603.31
2023-01-19T09:22:48.869Z,96602.16
2023-01-19T09:23:51.725Z,96599.88
2023-01-19T09:24:54.531Z,96595.22
2023-01-19T09:25:58.159Z,96602.41
2023-01-19T09:27:01.293Z,96600.13
2023-01-19T09:28:04.416Z,96594.41
2023-01-19T09:29:07.286Z,96591.19
2023-01-19T09:30:11.717Z,96590.06
2023-01-19T09:31:15.643Z,96590.41
2023-01-19T09:32:19.627Z,96584.25
2023-01-19T09:33:22.927Z,96587.75
2023-01-19T09:34:28.458Z,96590.56
2023-01-19T09:35:31.753Z,96579.16
2023-01-19T09:36:36.987Z,96580.28
2023-01-19T09:37:39.910Z,96587.91
2023-01-19T09:38:42.806Z,96585.94
2023-01-19T09:39:45.678Z,96593.34
2023-01-19T09:40:50.557Z,96590.41
2023-01-19T09:42:13.843Z,96596.50
2023-01-19T09:43:16.874Z,96590.66
2023-01-19T09:44:27.037Z,96595.66
2023-01-19T09:45:39.065Z,96589.66
2023-01-19T09:46:42.320Z,96582.88
2023-01-19T09:47:45.745Z,96584.63
2023-01-19T09:48:56.843Z,96582.38
2023-01-19T09:50:03.692Z,96585.66
2023-01-19T09:51:11.020Z,96579.09
2023-01-19T09:52:15.061Z,96584.88
2023-01-19T09:53:21.565Z,96585.94
2023-01-19T09:54:30.233Z,96588.78
2023-01-19T09:55:32.860Z,96585.06
2023-01-19T09:56:35.707Z,96589.84
2023-01-19T09:57:38.353Z,96588.78
2023-01-19T09:58:41.855Z,96589.78
2023-01-19T09:59:47.988Z,96590.81
2023-01-19T10:00:58.457Z,96595.94
2023-01-19T10:02:01.312Z,96596.91
2023-01-19T10:03:15.303Z,96599.06
2023-01-19T10:04:38.298Z,96590.94
2023-01-19T10:05:53.865Z,96596.13
2023-01-19T10:07:11.891Z,96592.78
2023-01-19T10:08:27.499Z,96598.34
2023-01-19T10:09:41.766Z,96596.72
2023-01-19T10:10:51.983Z,96603.22
2023-01-19T10:11:58.143Z,96601.34
2023-01-19T10:13:26.669Z,96602.06
2023-01-19T10:14:36.998Z,96602.50
2023-01-19T10:15:52.576Z,96595.75
2023-01-19T10:17:08.300Z,96606.81
2023-01-19T10:18:11.134Z,96601.09
2023-01-19T10:19:16.273Z,96603.81
2023-01-19T10:20:23.224Z,96601.41
2023-01-19T10:21:36.536Z,96603.72
2023-01-19T10:22:39.408Z,96601.66
2023-01-19T10:23:42.384Z,96599.19
2023-01-19T10:24:46.243Z,96603.44
2023-01-19T10:25:48.975Z,96598.38
2023-01-19T10:26:53.949Z,96602.84
2023-01-19T10:27:58.782Z,96605.53
2023-01-19T10:29:12.703Z,96596.69
2023-01-19T10:30:19.215Z,96603.72
2023-01-19T10:31:23.751Z,96601.72
2023-01-19T10:32:36.118Z,96599.59
2023-01-19T10:33:39.050Z,96605.09
2023-01-19T10:34:42.013Z,96607.31
2023-01-19T10:35:45.418Z,96598.94
2023-01-19T10:36:53.690Z,96602.59
2023-01-19T10:38:01.994Z,96612.44
2023-01-19T10:39:05.987Z,96604.44
2023-01-19T10:40:11.977Z,96603.94
2023-01-19T10:41:34.859Z,96609.78
2023-01-19T10:42:39.201Z,96609.81
2023-01-19T10:43:43.503Z,96611.72
2023-01-19T10:44:46.328Z,96612.66
2023-01-19T10:45:51.170Z,96617.00
2023-01-19T10:46:56.276Z,96619.13
2023-01-19T10:48:01.280Z,96623.44
2023-01-19T10:49:04.318Z,96620.50
2023-01-19T10:50:19.378Z,96621.62
2023-01-19T10:51:22.455Z,96613.56
2023-01-19T10:52:39.951Z,96625.47
2023-01-19T10:54:02.693Z,96624.00
2023-01-19T10:55:07.370Z,96626.22
2023-01-19T10:56:15.901Z,96629.25
2023-01-19T10:57:26.930Z,96630.78
2023-01-19T10:58:30.949Z,96625.09
2023-01-19T10:59:39.104Z,96633.50
2023-01-19T11:00:43.089Z,96633.63
2023-01-19T11:02:02.875Z,96635.81
2023-01-19T11:03:24.566Z,96633.25
2023-01-19T11:04:29.607Z,96634.50
2023-01-19T11:05:33.814Z,96637.25
2023-01-19T11:06:36.418Z,96640.91
2023-01-19T11:07:39.097Z,96645.16
2023-01-19T11:08:42.585Z,96652.47
2023-01-19T11:09:46.131Z,96642.94
2023-01-19T11:10:53.333Z,96644.03
2023-01-19T11:11:56.068Z,96639.91
2023-01-19T11:13:12.936Z,96644.81
2023-01-19T11:14:18.672Z,96638.06
2023-01-19T11:15:23.664Z,96635.09
2023-01-19T11:16:27.932Z,96633.03
2023-01-19T11:17:30.702Z,96627.09
2023-01-19T11:18:34.925Z,96627.75
2023-01-19T11:19:37.680Z,96622.38
2023-01-19T11:20:54.486Z,96627.88
2023-01-19T11:22:16.299Z,96620.66
2023-01-19T11:23:21.787Z,96620.06
2023-01-19T11:24:24.539Z,96622.38
2023-01-19T11:25:31.289Z,96623.19
2023-01-19T11:26:45.182Z,96612.16
2023-01-19T11:27:52.297Z,96622.31
2023-01-19T11:28:56.863Z,96619.16
2023-01-19T11:30:08.220Z,96617.91
2023-01-19T11:31:11.041Z,96619.22
2023-01-19T11:32:20.728Z,96624.63
2023-01-19T11:33:42.584Z,96624.31
2023-01-19T11:34:45.194Z,96624.47
2023-01-19T11:35:47.894Z,96633.63
2023-01-19T11:37:04.901Z,96634.00
2023-01-19T11:38:08.462Z,96639.53
2023-01-19T11:39:24.590Z,96628.69
2023-01-19T11:40:27.698Z,96627.22
2023-01-19T11:41:35.023Z,96629.38
2023-01-19T11:42:37.682Z,96627.34
2023-01-19T11:43:49.050Z,96635.28
2023-01-19T11:45:00.933Z,96631.78
2023-01-19T11:46:03.948Z,96635.53
2023-01-19T11:47:12.650Z,96633.88
2023-01-19T11:48:29.610Z,96633.44
2023-01-19T11:49:47.411Z,96636.97
2023-01-19T11:50:50.694Z,96636.00
2023-01-19T11:51:59.279Z,96639.97
2023-01-19T11:53:06.388Z,96634.75
2023-01-19T11:54:18.269Z,96631.63
2023-01-19T11:55:39.577Z,96636.50
2023-01-19T11:56:43.191Z,96638.59
2023-01-19T11:57:47.666Z,96636.97
2023-01-19T11:58:50.589Z,96638.16
2023-01-19T11:59:54.380Z,96639.97
2023-01-19T12:00:57.654Z,96645.66
2023-01-19T12:02:02.965Z,96648.81
2023-01-19T12:03:16.059Z,96646.78
2023-01-19T12:04:48.352Z,96656.78
2023-01-19T12:05:57.583Z,96657.06
2023-01-19T12:07:07.155Z,96661.69
2023-01-19T12:08:14.655Z,96662.16
2023-01-19T12:09:26.132Z,96653.75
2023-01-19T12:10:30.178Z,96660.84
2023-01-19T12:11:35.785Z,96666.31
2023-01-19T12:12:40.901Z,96660.19
2023-01-19T12:13:45.166Z,96662.97
2023-01-19T12:14:55.918Z,96659.56
2023-01-19T12:16:13.500Z,96664.31
2023-01-19T12:17:25.452Z,96664.72
2023-01-19T12:18:36.475Z,96670.75
2023-01-19T12:19:52.348Z,96674.25
2023-01-19T12:20:56.785Z,96673.44
2023-01-19T12:21:59.614Z,96675.25
2023-01-19T12:23:08.735Z,96675.75
2023-01-19T12:24:13.939Z,96682.16
2023-01-19T12:25:22.508Z,96681.62
2023-01-19T12:26:27.769Z,96684.19
2023-01-19T12:27:38.647Z,96683.66
2023-01-19T12:28:43.646Z,96685.16
2023-01-19T12:29:46.805Z,96696.31
2023-01-19T12:30:52.371Z,96694.28
2023-01-19T12:32:13.337Z,96693.00
2023-01-19T12:33:23.535Z,96695.56
2023-01-19T12:34:27.448Z,96706.94
2023-01-19T12:35:52.284Z,96697.84
2023-01-19T12:36:57.998Z,96692.22
2023-01-19T12:38:02.773Z,96695.88
2023-01-19T12:39:19.708Z,96695.38
2023-01-19T12:40:25.856Z,96695.59
2023-01-19T12:41:40.907Z,96688.16
2023-01-19T12:42:45.258Z,96703.94
2023-01-19T12:43:48.967Z,96707.81
2023-01-19T12:45:04.461Z,96703.31
2023-01-19T12:46:25.861Z,96713.41
2023-01-19T12:47:28.611Z,96716.31